sensor_id;sensor_type;location;lat;lon;timestamp;P1;durP1;ratioP1;P2;durP2;ratioP2
11283;SDS011;5698;47.332;11.180;2023-05-14T00:01:28;1.80;;;1.70;;
11283;SDS011;5698;47.332;11.180;2023-05-14T00:03:55;1.47;;;1.37;;
11283;SDS011;5698;47.332;11.180;2023-05-14T00:06:23;1.73;;;1.63;;
11283;SDS011;5698;47.332;11.180;2023-05-14T00:08:50;1.50;;;1.40;;
11283;SDS011;5698;47.332;11.180;2023-05-14T00:11:17;1.27;;;1.17;;
11283;SDS011;5698;47.332;11.180;2023-05-14T00:13:45;1.50;;;1.40;;
11283;SDS011;5698;47.332;11.180;2023-05-14T00:16:12;1.93;;;1.83;;
11283;SDS011;5698;47.332;11.180;2023-05-14T00:18:38;2.40;;;1.73;;
11283;SDS011;5698;47.332;11.180;2023-05-14T00:21:05;2.10;;;2.00;;
11283;SDS011;5698;47.332;11.180;2023-05-14T00:23:34;1.03;;;0.97;;
11283;SDS011;5698;47.332;11.180;2023-05-14T00:26:01;1.00;;;1.00;;
11283;SDS011;5698;47.332;11.180;2023-05-14T00:28:28;1.33;;;1.23;;
11283;SDS011;5698;47.332;11.180;2023-05-14T00:30:55;1.13;;;1.07;;
11283;SDS011;5698;47.332;11.180;2023-05-14T00:33:22;1.40;;;1.30;;
11283;SDS011;5698;47.332;11.180;2023-05-14T00:35:49;1.37;;;1.27;;
11283;SDS011;5698;47.332;11.180;2023-05-14T00:38:16;0.90;;;0.90;;
11283;SDS011;5698;47.332;11.180;2023-05-14T00:40:45;0.73;;;0.73;;
11283;SDS011;5698;47.332;11.180;2023-05-14T00:43:15;0.50;;;0.50;;
11283;SDS011;5698;47.332;11.180;2023-05-14T00:45:43;0.50;;;0.50;;
11283;SDS011;5698;47.332;11.180;2023-05-14T00:48:11;1.03;;;1.03;;
11283;SDS011;5698;47.332;11.180;2023-05-14T00:50:38;1.27;;;1.17;;
11283;SDS011;5698;47.332;11.180;2023-05-14T00:53:05;1.50;;;1.40;;
11283;SDS011;5698;47.332;11.180;2023-05-14T00:55:34;1.30;;;1.20;;
11283;SDS011;5698;47.332;11.180;2023-05-14T00:58:05;1.13;;;1.10;;
11283;SDS011;5698;47.332;11.180;2023-05-14T01:00:34;1.00;;;0.90;;
11283;SDS011;5698;47.332;11.180;2023-05-14T01:03:01;0.70;;;0.70;;
11283;SDS011;5698;47.332;11.180;2023-05-14T01:05:30;0.70;;;0.70;;
11283;SDS011;5698;47.332;11.180;2023-05-14T01:08:02;2.30;;;0.70;;
11283;SDS011;5698;47.332;11.180;2023-05-14T01:10:37;0.70;;;0.70;;
11283;SDS011;5698;47.332;11.180;2023-05-14T01:13:14;0.87;;;0.73;;
11283;SDS011;5698;47.332;11.180;2023-05-14T01:15:52;0.63;;;0.63;;
11283;SDS011;5698;47.332;11.180;2023-05-14T01:18:21;0.67;;;0.67;;
11283;SDS011;5698;47.332;11.180;2023-05-14T01:20:50;3.47;;;0.80;;
11283;SDS011;5698;47.332;11.180;2023-05-14T01:23:18;1.50;;;1.40;;
11283;SDS011;5698;47.332;11.180;2023-05-14T01:25:46;1.07;;;1.07;;
11283;SDS011;5698;47.332;11.180;2023-05-14T01:28:14;1.30;;;1.20;;
11283;SDS011;5698;47.332;11.180;2023-05-14T01:30:44;2.20;;;1.10;;
11283;SDS011;5698;47.332;11.180;2023-05-14T01:33:15;1.00;;;1.00;;
11283;SDS011;5698;47.332;11.180;2023-05-14T01:35:43;1.77;;;1.30;;
11283;SDS011;5698;47.332;11.180;2023-05-14T01:38:11;1.13;;;1.10;;
11283;SDS011;5698;47.332;11.180;2023-05-14T01:40:41;1.30;;;1.20;;
11283;SDS011;5698;47.332;11.180;2023-05-14T01:43:10;1.20;;;1.10;;
11283;SDS011;5698;47.332;11.180;2023-05-14T01:45:37;1.67;;;1.00;;
11283;SDS011;5698;47.332;11.180;2023-05-14T01:48:04;0.80;;;0.80;;
11283;SDS011;5698;47.332;11.180;2023-05-14T01:50:31;1.00;;;0.90;;
11283;SDS011;5698;47.332;11.180;2023-05-14T01:52:58;1.00;;;0.90;;
11283;SDS011;5698;47.332;11.180;2023-05-14T01:55:25;1.00;;;0.90;;
11283;SDS011;5698;47.332;11.180;2023-05-14T01:57:54;1.00;;;1.00;;
11283;SDS011;5698;47.332;11.180;2023-05-14T02:00:22;0.90;;;0.90;;
11283;SDS011;5698;47.332;11.180;2023-05-14T02:02:49;0.70;;;0.70;;
11283;SDS011;5698;47.332;11.180;2023-05-14T02:05:16;0.83;;;0.83;;
11283;SDS011;5698;47.332;11.180;2023-05-14T02:07:43;0.63;;;0.60;;
11283;SDS011;5698;47.332;11.180;2023-05-14T02:10:10;0.80;;;0.80;;
11283;SDS011;5698;47.332;11.180;2023-05-14T02:12:37;0.70;;;0.70;;
11283;SDS011;5698;47.332;11.180;2023-05-14T02:15:06;0.70;;;0.70;;
11283;SDS011;5698;47.332;11.180;2023-05-14T02:17:35;0.87;;;0.80;;
11283;SDS011;5698;47.332;11.180;2023-05-14T02:20:02;0.90;;;0.90;;
11283;SDS011;5698;47.332;11.180;2023-05-14T02:22:29;0.67;;;0.67;;
11283;SDS011;5698;47.332;11.180;2023-05-14T02:24:56;0.83;;;0.70;;
11283;SDS011;5698;47.332;11.180;2023-05-14T02:27:23;0.80;;;0.80;;
11283;SDS011;5698;47.332;11.180;2023-05-14T02:29:50;0.77;;;0.77;;
11283;SDS011;5698;47.332;11.180;2023-05-14T02:32:19;1.07;;;1.00;;
11283;SDS011;5698;47.332;11.180;2023-05-14T02:34:46;0.73;;;0.73;;
11283;SDS011;5698;47.332;11.180;2023-05-14T02:37:13;0.77;;;0.77;;
11283;SDS011;5698;47.332;11.180;2023-05-14T02:39:40;1.77;;;1.00;;
11283;SDS011;5698;47.332;11.180;2023-05-14T02:42:07;0.70;;;0.70;;
11283;SDS011;5698;47.332;11.180;2023-05-14T02:44:34;1.00;;;0.90;;
11283;SDS011;5698;47.332;11.180;2023-05-14T02:47:01;0.97;;;0.87;;
11283;SDS011;5698;47.332;11.180;2023-05-14T02:49:29;0.57;;;0.57;;
11283;SDS011;5698;47.332;11.180;2023-05-14T02:51:56;2.20;;;0.87;;
11283;SDS011;5698;47.332;11.180;2023-05-14T02:54:24;0.97;;;0.80;;
11283;SDS011;5698;47.332;11.180;2023-05-14T02:56:51;0.63;;;0.63;;
11283;SDS011;5698;47.332;11.180;2023-05-14T02:59:18;0.80;;;0.80;;
11283;SDS011;5698;47.332;11.180;2023-05-14T03:01:45;0.77;;;0.77;;
11283;SDS011;5698;47.332;11.180;2023-05-14T03:04:12;1.30;;;0.80;;
11283;SDS011;5698;47.332;11.180;2023-05-14T03:06:41;1.27;;;0.77;;
11283;SDS011;5698;47.332;11.180;2023-05-14T03:09:08;1.37;;;0.83;;
11283;SDS011;5698;47.332;11.180;2023-05-14T03:11:35;0.90;;;0.70;;
11283;SDS011;5698;47.332;11.180;2023-05-14T03:14:02;0.60;;;0.60;;
11283;SDS011;5698;47.332;11.180;2023-05-14T03:16:29;0.80;;;0.60;;
11283;SDS011;5698;47.332;11.180;2023-05-14T03:18:56;0.80;;;0.80;;
11283;SDS011;5698;47.332;11.180;2023-05-14T03:21:23;0.73;;;0.73;;
11283;SDS011;5698;47.332;11.180;2023-05-14T03:23:52;0.70;;;0.70;;
11283;SDS011;5698;47.332;11.180;2023-05-14T03:26:19;0.60;;;0.60;;
11283;SDS011;5698;47.332;11.180;2023-05-14T03:28:46;0.60;;;0.60;;
11283;SDS011;5698;47.332;11.180;2023-05-14T03:31:13;0.80;;;0.80;;
11283;SDS011;5698;47.332;11.180;2023-05-14T03:33:40;0.70;;;0.70;;
11283;SDS011;5698;47.332;11.180;2023-05-14T03:36:07;0.80;;;0.80;;
11283;SDS011;5698;47.332;11.180;2023-05-14T03:38:35;1.23;;;0.80;;
11283;SDS011;5698;47.332;11.180;2023-05-14T03:41:03;0.90;;;0.90;;
11283;SDS011;5698;47.332;11.180;2023-05-14T03:43:30;1.30;;;0.80;;
11283;SDS011;5698;47.332;11.180;2023-05-14T03:45:57;0.80;;;0.80;;
11283;SDS011;5698;47.332;11.180;2023-05-14T03:48:24;1.00;;;0.90;;
11283;SDS011;5698;47.332;11.180;2023-05-14T03:50:51;1.43;;;0.80;;
11283;SDS011;5698;47.332;11.180;2023-05-14T03:53:18;0.90;;;0.87;;
11283;SDS011;5698;47.332;11.180;2023-05-14T03:55:45;1.43;;;0.90;;
11283;SDS011;5698;47.332;11.180;2023-05-14T03:58:13;0.73;;;0.73;;
11283;SDS011;5698;47.332;11.180;2023-05-14T04:00:40;0.70;;;0.70;;
11283;SDS011;5698;47.332;11.180;2023-05-14T04:03:07;1.37;;;0.90;;
11283;SDS011;5698;47.332;11.180;2023-05-14T04:05:35;0.90;;;0.90;;
11283;SDS011;5698;47.332;11.180;2023-05-14T04:08:02;1.03;;;0.90;;
11283;SDS011;5698;47.332;11.180;2023-05-14T04:10:29;0.80;;;0.80;;
11283;SDS011;5698;47.332;11.180;2023-05-14T04:12:57;0.80;;;0.80;;
11283;SDS011;5698;47.332;11.180;2023-05-14T04:15:25;0.90;;;0.90;;
11283;SDS011;5698;47.332;11.180;2023-05-14T04:17:52;0.80;;;0.80;;
11283;SDS011;5698;47.332;11.180;2023-05-14T04:20:19;0.93;;;0.93;;
11283;SDS011;5698;47.332;11.180;2023-05-14T04:22:46;0.83;;;0.83;;
11283;SDS011;5698;47.332;11.180;2023-05-14T04:25:13;2.30;;;1.07;;
11283;SDS011;5698;47.332;11.180;2023-05-14T04:27:42;1.30;;;1.20;;
11283;SDS011;5698;47.332;11.180;2023-05-14T04:30:09;1.03;;;0.93;;
11283;SDS011;5698;47.332;11.180;2023-05-14T04:32:38;0.90;;;0.90;;
11283;SDS011;5698;47.332;11.180;2023-05-14T04:35:06;0.80;;;0.80;;
11283;SDS011;5698;47.332;11.180;2023-05-14T04:37:34;0.80;;;0.80;;
11283;SDS011;5698;47.332;11.180;2023-05-14T04:40:01;0.80;;;0.80;;
11283;SDS011;5698;47.332;11.180;2023-05-14T04:42:29;1.57;;;1.00;;
11283;SDS011;5698;47.332;11.180;2023-05-14T04:44:56;0.80;;;0.80;;
11283;SDS011;5698;47.332;11.180;2023-05-14T04:47:23;1.17;;;0.83;;
11283;SDS011;5698;47.332;11.180;2023-05-14T04:49:52;0.60;;;0.60;;
11283;SDS011;5698;47.332;11.180;2023-05-14T04:52:19;0.70;;;0.70;;
11283;SDS011;5698;47.332;11.180;2023-05-14T04:54:46;0.70;;;0.70;;
11283;SDS011;5698;47.332;11.180;2023-05-14T04:57:13;0.70;;;0.70;;
11283;SDS011;5698;47.332;11.180;2023-05-14T04:59:40;1.30;;;0.90;;
11283;SDS011;5698;47.332;11.180;2023-05-14T05:02:07;1.13;;;0.90;;
11283;SDS011;5698;47.332;11.180;2023-05-14T05:04:34;1.20;;;0.80;;
11283;SDS011;5698;47.332;11.180;2023-05-14T05:07:03;1.07;;;1.00;;
11283;SDS011;5698;47.332;11.180;2023-05-14T05:09:30;2.10;;;1.00;;
11283;SDS011;5698;47.332;11.180;2023-05-14T05:11:57;1.53;;;0.90;;
11283;SDS011;5698;47.332;11.180;2023-05-14T05:14:25;1.10;;;1.00;;
11283;SDS011;5698;47.332;11.180;2023-05-14T05:16:52;1.10;;;0.90;;
11283;SDS011;5698;47.332;11.180;2023-05-14T05:19:19;0.70;;;0.70;;
11283;SDS011;5698;47.332;11.180;2023-05-14T05:21:46;1.00;;;1.00;;
11283;SDS011;5698;47.332;11.180;2023-05-14T05:24:14;1.23;;;1.13;;
11283;SDS011;5698;47.332;11.180;2023-05-14T05:26:41;1.10;;;1.00;;
11283;SDS011;5698;47.332;11.180;2023-05-14T05:29:08;0.97;;;0.97;;
11283;SDS011;5698;47.332;11.180;2023-05-14T05:31:35;0.80;;;0.80;;
11283;SDS011;5698;47.332;11.180;2023-05-14T05:34:02;1.00;;;0.90;;
11283;SDS011;5698;47.332;11.180;2023-05-14T05:36:30;1.20;;;1.10;;
11283;SDS011;5698;47.332;11.180;2023-05-14T05:38:57;0.97;;;0.97;;
11283;SDS011;5698;47.332;11.180;2023-05-14T05:41:25;1.30;;;1.00;;
11283;SDS011;5698;47.332;11.180;2023-05-14T05:43:54;2.00;;;1.70;;
11283;SDS011;5698;47.332;11.180;2023-05-14T05:46:21;2.10;;;1.33;;
11283;SDS011;5698;47.332;11.180;2023-05-14T05:48:48;1.37;;;1.27;;
11283;SDS011;5698;47.332;11.180;2023-05-14T05:51:14;2.50;;;2.30;;
11283;SDS011;5698;47.332;11.180;2023-05-14T05:53:41;2.63;;;2.43;;
11283;SDS011;5698;47.332;11.180;2023-05-14T05:56:08;2.10;;;1.90;;
11283;SDS011;5698;47.332;11.180;2023-05-14T05:58:37;1.60;;;1.50;;
11283;SDS011;5698;47.332;11.180;2023-05-14T06:01:04;2.87;;;1.63;;
11283;SDS011;5698;47.332;11.180;2023-05-14T06:03:31;2.10;;;1.90;;
11283;SDS011;5698;47.332;11.180;2023-05-14T06:05:58;2.10;;;2.00;;
11283;SDS011;5698;47.332;11.180;2023-05-14T06:08:25;1.70;;;1.60;;
11283;SDS011;5698;47.332;11.180;2023-05-14T06:10:51;1.60;;;1.50;;
11283;SDS011;5698;47.332;11.180;2023-05-14T06:13:18;2.23;;;1.90;;
11283;SDS011;5698;47.332;11.180;2023-05-14T06:15:47;1.63;;;1.53;;
11283;SDS011;5698;47.332;11.180;2023-05-14T06:18:14;2.10;;;1.90;;
11283;SDS011;5698;47.332;11.180;2023-05-14T06:20:41;2.17;;;1.50;;
11283;SDS011;5698;47.332;11.180;2023-05-14T06:23:08;1.40;;;1.30;;
11283;SDS011;5698;47.332;11.180;2023-05-14T06:25:36;1.40;;;1.20;;
11283;SDS011;5698;47.332;11.180;2023-05-14T06:28:03;1.77;;;1.67;;
11283;SDS011;5698;47.332;11.180;2023-05-14T06:30:30;1.60;;;1.50;;
11283;SDS011;5698;47.332;11.180;2023-05-14T06:32:59;1.70;;;1.60;;
11283;SDS011;5698;47.332;11.180;2023-05-14T06:35:26;1.33;;;1.23;;
11283;SDS011;5698;47.332;11.180;2023-05-14T06:37:53;1.60;;;1.50;;
11283;SDS011;5698;47.332;11.180;2023-05-14T06:40:20;1.33;;;1.23;;
11283;SDS011;5698;47.332;11.180;2023-05-14T06:42:47;1.50;;;1.40;;
11283;SDS011;5698;47.332;11.180;2023-05-14T06:45:14;1.47;;;1.33;;
11283;SDS011;5698;47.332;11.180;2023-05-14T06:47:41;1.50;;;1.40;;
11283;SDS011;5698;47.332;11.180;2023-05-14T06:50:09;1.40;;;1.30;;
11283;SDS011;5698;47.332;11.180;2023-05-14T06:52:37;1.40;;;1.30;;
11283;SDS011;5698;47.332;11.180;2023-05-14T06:55:04;1.70;;;1.60;;
11283;SDS011;5698;47.332;11.180;2023-05-14T06:57:31;1.40;;;1.30;;
11283;SDS011;5698;47.332;11.180;2023-05-14T06:59:59;1.30;;;1.20;;
11283;SDS011;5698;47.332;11.180;2023-05-14T07:02:26;1.50;;;1.40;;
11283;SDS011;5698;47.332;11.180;2023-05-14T07:04:53;1.33;;;1.23;;
11283;SDS011;5698;47.332;11.180;2023-05-14T07:07:21;1.20;;;1.10;;
11283;SDS011;5698;47.332;11.180;2023-05-14T07:09:48;1.53;;;1.23;;
11283;SDS011;5698;47.332;11.180;2023-05-14T07:12:15;1.40;;;1.30;;
11283;SDS011;5698;47.332;11.180;2023-05-14T07:14:42;1.53;;;1.33;;
11283;SDS011;5698;47.332;11.180;2023-05-14T07:17:09;3.33;;;1.33;;
11283;SDS011;5698;47.332;11.180;2023-05-14T07:19:36;1.17;;;1.07;;
11283;SDS011;5698;47.332;11.180;2023-05-14T07:22:03;1.53;;;1.20;;
11283;SDS011;5698;47.332;11.180;2023-05-14T07:24:31;1.37;;;1.27;;
11283;SDS011;5698;47.332;11.180;2023-05-14T07:26:58;1.40;;;1.30;;
11283;SDS011;5698;47.332;11.180;2023-05-14T07:29:25;1.60;;;1.50;;
11283;SDS011;5698;47.332;11.180;2023-05-14T07:31:54;1.30;;;1.20;;
11283;SDS011;5698;47.332;11.180;2023-05-14T07:34:21;1.50;;;1.40;;
11283;SDS011;5698;47.332;11.180;2023-05-14T07:36:48;1.70;;;1.40;;
11283;SDS011;5698;47.332;11.180;2023-05-14T07:39:15;1.20;;;1.10;;
11283;SDS011;5698;47.332;11.180;2023-05-14T07:41:43;1.40;;;1.30;;
11283;SDS011;5698;47.332;11.180;2023-05-14T07:44:10;1.40;;;1.30;;
11283;SDS011;5698;47.332;11.180;2023-05-14T07:46:37;1.30;;;1.20;;
11283;SDS011;5698;47.332;11.180;2023-05-14T07:49:05;2.00;;;1.13;;
11283;SDS011;5698;47.332;11.180;2023-05-14T07:51:32;1.20;;;1.10;;
11283;SDS011;5698;47.332;11.180;2023-05-14T07:53:59;0.93;;;0.93;;
11283;SDS011;5698;47.332;11.180;2023-05-14T07:56:26;1.60;;;1.50;;
11283;SDS011;5698;47.332;11.180;2023-05-14T07:58:54;1.70;;;1.60;;
11283;SDS011;5698;47.332;11.180;2023-05-14T08:01:21;0.90;;;0.90;;
11283;SDS011;5698;47.332;11.180;2023-05-14T08:03:48;0.77;;;0.77;;
11283;SDS011;5698;47.332;11.180;2023-05-14T08:06:15;0.80;;;0.80;;
11283;SDS011;5698;47.332;11.180;2023-05-14T08:08:42;1.30;;;1.00;;
11283;SDS011;5698;47.332;11.180;2023-05-14T08:11:09;1.03;;;0.93;;
11283;SDS011;5698;47.332;11.180;2023-05-14T08:13:36;0.80;;;0.80;;
11283;SDS011;5698;47.332;11.180;2023-05-14T08:16:04;0.70;;;0.70;;
11283;SDS011;5698;47.332;11.180;2023-05-14T08:18:32;0.77;;;0.60;;
11283;SDS011;5698;47.332;11.180;2023-05-14T08:20:59;1.53;;;0.77;;
11283;SDS011;5698;47.332;11.180;2023-05-14T08:23:26;0.90;;;0.90;;
11283;SDS011;5698;47.332;11.180;2023-05-14T08:25:53;1.10;;;1.00;;
11283;SDS011;5698;47.332;11.180;2023-05-14T08:28:20;0.80;;;0.80;;
11283;SDS011;5698;47.332;11.180;2023-05-14T08:30:47;1.20;;;1.10;;
11283;SDS011;5698;47.332;11.180;2023-05-14T08:33:15;0.80;;;0.80;;
11283;SDS011;5698;47.332;11.180;2023-05-14T08:35:43;1.83;;;1.10;;
11283;SDS011;5698;47.332;11.180;2023-05-14T08:38:10;0.70;;;0.70;;
11283;SDS011;5698;47.332;11.180;2023-05-14T08:40:37;2.10;;;0.77;;
11283;SDS011;5698;47.332;11.180;2023-05-14T08:43:04;0.60;;;0.60;;
11283;SDS011;5698;47.332;11.180;2023-05-14T08:45:33;0.60;;;0.60;;
11283;SDS011;5698;47.332;11.180;2023-05-14T08:48:02;0.60;;;0.60;;
11283;SDS011;5698;47.332;11.180;2023-05-14T08:50:34;0.70;;;0.70;;
11283;SDS011;5698;47.332;11.180;2023-05-14T08:53:02;0.60;;;0.60;;
11283;SDS011;5698;47.332;11.180;2023-05-14T08:55:29;0.70;;;0.70;;
11283;SDS011;5698;47.332;11.180;2023-05-14T08:57:57;0.60;;;0.60;;
11283;SDS011;5698;47.332;11.180;2023-05-14T09:00:25;0.83;;;0.60;;
11283;SDS011;5698;47.332;11.180;2023-05-14T09:02:52;0.60;;;0.60;;
11283;SDS011;5698;47.332;11.180;2023-05-14T09:05:20;0.60;;;0.60;;
11283;SDS011;5698;47.332;11.180;2023-05-14T09:07:50;3.00;;;1.00;;
11283;SDS011;5698;47.332;11.180;2023-05-14T09:10:17;0.63;;;0.63;;
11283;SDS011;5698;47.332;11.180;2023-05-14T09:12:45;0.80;;;0.80;;
11283;SDS011;5698;47.332;11.180;2023-05-14T09:15:12;1.00;;;0.90;;
11283;SDS011;5698;47.332;11.180;2023-05-14T09:17:39;0.97;;;0.97;;
11283;SDS011;5698;47.332;11.180;2023-05-14T09:20:07;1.20;;;1.10;;
11283;SDS011;5698;47.332;11.180;2023-05-14T09:22:36;0.70;;;0.70;;
11283;SDS011;5698;47.332;11.180;2023-05-14T09:25:06;0.70;;;0.70;;
11283;SDS011;5698;47.332;11.180;2023-05-14T09:27:36;0.60;;;0.60;;
11283;SDS011;5698;47.332;11.180;2023-05-14T09:30:03;2.40;;;0.60;;
11283;SDS011;5698;47.332;11.180;2023-05-14T09:32:35;2.43;;;0.70;;
11283;SDS011;5698;47.332;11.180;2023-05-14T09:35:13;0.50;;;0.50;;
11283;SDS011;5698;47.332;11.180;2023-05-14T09:37:42;0.90;;;0.70;;
11283;SDS011;5698;47.332;11.180;2023-05-14T09:40:12;0.60;;;0.60;;
11283;SDS011;5698;47.332;11.180;2023-05-14T09:42:39;2.00;;;0.60;;
11283;SDS011;5698;47.332;11.180;2023-05-14T09:45:07;0.60;;;0.60;;
11283;SDS011;5698;47.332;11.180;2023-05-14T09:47:34;0.90;;;0.50;;
11283;SDS011;5698;47.332;11.180;2023-05-14T09:50:02;4.67;;;0.80;;
11283;SDS011;5698;47.332;11.180;2023-05-14T09:52:29;0.70;;;0.57;;
11283;SDS011;5698;47.332;11.180;2023-05-14T09:54:57;0.60;;;0.60;;
11283;SDS011;5698;47.332;11.180;2023-05-14T09:57:26;0.77;;;0.77;;
11283;SDS011;5698;47.332;11.180;2023-05-14T09:59:53;0.57;;;0.57;;
11283;SDS011;5698;47.332;11.180;2023-05-14T10:02:21;0.60;;;0.60;;
11283;SDS011;5698;47.332;11.180;2023-05-14T10:04:52;0.50;;;0.50;;
11283;SDS011;5698;47.332;11.180;2023-05-14T10:07:23;0.60;;;0.60;;
11283;SDS011;5698;47.332;11.180;2023-05-14T10:09:56;0.50;;;0.50;;
11283;SDS011;5698;47.332;11.180;2023-05-14T10:12:27;0.50;;;0.50;;
11283;SDS011;5698;47.332;11.180;2023-05-14T10:14:57;0.50;;;0.50;;
11283;SDS011;5698;47.332;11.180;2023-05-14T10:17:30;0.60;;;0.60;;
11283;SDS011;5698;47.332;11.180;2023-05-14T10:19:59;0.40;;;0.40;;
11283;SDS011;5698;47.332;11.180;2023-05-14T10:22:30;2.00;;;0.40;;
11283;SDS011;5698;47.332;11.180;2023-05-14T10:25:00;0.40;;;0.40;;
11283;SDS011;5698;47.332;11.180;2023-05-14T10:27:29;0.60;;;0.50;;
11283;SDS011;5698;47.332;11.180;2023-05-14T10:29:57;0.40;;;0.40;;
11283;SDS011;5698;47.332;11.180;2023-05-14T10:32:24;1.53;;;0.43;;
11283;SDS011;5698;47.332;11.180;2023-05-14T10:34:57;0.30;;;0.30;;
11283;SDS011;5698;47.332;11.180;2023-05-14T10:37:26;0.40;;;0.40;;
11283;SDS011;5698;47.332;11.180;2023-05-14T10:39:57;0.60;;;0.50;;
11283;SDS011;5698;47.332;11.180;2023-05-14T10:42:25;0.50;;;0.50;;
11283;SDS011;5698;47.332;11.180;2023-05-14T10:44:55;0.70;;;0.60;;
11283;SDS011;5698;47.332;11.180;2023-05-14T10:47:25;0.50;;;0.50;;
11283;SDS011;5698;47.332;11.180;2023-05-14T10:49:54;0.90;;;0.60;;
11283;SDS011;5698;47.332;11.180;2023-05-14T10:52:22;0.40;;;0.40;;
11283;SDS011;5698;47.332;11.180;2023-05-14T10:54:50;1.97;;;0.67;;
11283;SDS011;5698;47.332;11.180;2023-05-14T10:57:18;0.60;;;0.60;;
11283;SDS011;5698;47.332;11.180;2023-05-14T10:59:47;0.60;;;0.60;;
11283;SDS011;5698;47.332;11.180;2023-05-14T11:02:22;0.50;;;0.50;;
11283;SDS011;5698;47.332;11.180;2023-05-14T11:04:57;0.50;;;0.50;;
11283;SDS011;5698;47.332;11.180;2023-05-14T11:07:28;0.60;;;0.60;;
11283;SDS011;5698;47.332;11.180;2023-05-14T11:12:26;0.50;;;0.50;;
11283;SDS011;5698;47.332;11.180;2023-05-14T11:14:53;0.50;;;0.50;;
11283;SDS011;5698;47.332;11.180;2023-05-14T11:17:24;1.60;;;0.67;;
11283;SDS011;5698;47.332;11.180;2023-05-14T11:19:52;0.60;;;0.60;;
11283;SDS011;5698;47.332;11.180;2023-05-14T11:22:19;0.70;;;0.70;;
11283;SDS011;5698;47.332;11.180;2023-05-14T11:24:46;2.03;;;1.90;;
11283;SDS011;5698;47.332;11.180;2023-05-14T11:27:14;0.87;;;0.87;;
11283;SDS011;5698;47.332;11.180;2023-05-14T11:29:42;0.70;;;0.70;;
11283;SDS011;5698;47.332;11.180;2023-05-14T11:32:10;0.50;;;0.50;;
11283;SDS011;5698;47.332;11.180;2023-05-14T11:34:39;0.50;;;0.50;;
11283;SDS011;5698;47.332;11.180;2023-05-14T11:37:09;0.60;;;0.60;;
11283;SDS011;5698;47.332;11.180;2023-05-14T11:39:37;0.70;;;0.70;;
11283;SDS011;5698;47.332;11.180;2023-05-14T11:42:08;0.83;;;0.70;;
11283;SDS011;5698;47.332;11.180;2023-05-14T11:44:38;0.60;;;0.60;;
11283;SDS011;5698;47.332;11.180;2023-05-14T11:47:08;0.80;;;0.80;;
11283;SDS011;5698;47.332;11.180;2023-05-14T11:49:35;1.80;;;0.67;;
11283;SDS011;5698;47.332;11.180;2023-05-14T11:52:04;0.53;;;0.53;;
11283;SDS011;5698;47.332;11.180;2023-05-14T11:54:34;1.03;;;0.57;;
11283;SDS011;5698;47.332;11.180;2023-05-14T11:57:06;0.60;;;0.60;;
11283;SDS011;5698;47.332;11.180;2023-05-14T11:59:34;0.60;;;0.60;;
11283;SDS011;5698;47.332;11.180;2023-05-14T12:02:01;0.60;;;0.60;;
11283;SDS011;5698;47.332;11.180;2023-05-14T12:04:29;5.53;;;5.03;;
11283;SDS011;5698;47.332;11.180;2023-05-14T12:06:57;1.97;;;1.80;;
11283;SDS011;5698;47.332;11.180;2023-05-14T12:09:27;2.03;;;1.90;;
11283;SDS011;5698;47.332;11.180;2023-05-14T12:11:54;0.70;;;0.70;;
11283;SDS011;5698;47.332;11.180;2023-05-14T12:14:21;0.53;;;0.53;;
11283;SDS011;5698;47.332;11.180;2023-05-14T12:16:49;0.30;;;0.30;;
11283;SDS011;5698;47.332;11.180;2023-05-14T12:19:17;0.50;;;0.50;;
11283;SDS011;5698;47.332;11.180;2023-05-14T12:21:45;1.73;;;0.77;;
11283;SDS011;5698;47.332;11.180;2023-05-14T12:24:15;1.20;;;0.60;;
11283;SDS011;5698;47.332;11.180;2023-05-14T12:26:45;0.47;;;0.47;;
11283;SDS011;5698;47.332;11.180;2023-05-14T12:29:13;0.50;;;0.50;;
11283;SDS011;5698;47.332;11.180;2023-05-14T12:31:44;0.90;;;0.80;;
11283;SDS011;5698;47.332;11.180;2023-05-14T12:34:12;0.93;;;0.80;;
11283;SDS011;5698;47.332;11.180;2023-05-14T12:36:40;0.40;;;0.40;;
11283;SDS011;5698;47.332;11.180;2023-05-14T12:39:07;1.50;;;0.40;;
11283;SDS011;5698;47.332;11.180;2023-05-14T12:41:34;0.53;;;0.50;;
11283;SDS011;5698;47.332;11.180;2023-05-14T12:44:03;0.50;;;0.50;;
11283;SDS011;5698;47.332;11.180;2023-05-14T12:46:31;1.00;;;0.90;;
11283;SDS011;5698;47.332;11.180;2023-05-14T12:48:59;0.30;;;0.30;;
11283;SDS011;5698;47.332;11.180;2023-05-14T12:51:26;0.40;;;0.40;;
11283;SDS011;5698;47.332;11.180;2023-05-14T12:53:53;0.40;;;0.40;;
11283;SDS011;5698;47.332;11.180;2023-05-14T12:56:20;0.40;;;0.40;;
11283;SDS011;5698;47.332;11.180;2023-05-14T12:58:52;0.50;;;0.50;;
11283;SDS011;5698;47.332;11.180;2023-05-14T13:01:22;0.60;;;0.60;;
11283;SDS011;5698;47.332;11.180;2023-05-14T13:03:49;0.60;;;0.60;;
11283;SDS011;5698;47.332;11.180;2023-05-14T13:06:16;0.60;;;0.53;;
11283;SDS011;5698;47.332;11.180;2023-05-14T13:08:43;0.60;;;0.60;;
11283;SDS011;5698;47.332;11.180;2023-05-14T13:11:10;0.60;;;0.60;;
11283;SDS011;5698;47.332;11.180;2023-05-14T13:13:37;0.80;;;0.60;;
11283;SDS011;5698;47.332;11.180;2023-05-14T13:16:04;0.63;;;0.60;;
11283;SDS011;5698;47.332;11.180;2023-05-14T13:18:33;0.50;;;0.50;;
11283;SDS011;5698;47.332;11.180;2023-05-14T13:21:00;0.50;;;0.50;;
11283;SDS011;5698;47.332;11.180;2023-05-14T13:23:30;0.93;;;0.70;;
11283;SDS011;5698;47.332;11.180;2023-05-14T13:25:57;0.50;;;0.50;;
11283;SDS011;5698;47.332;11.180;2023-05-14T13:28:24;0.70;;;0.70;;
11283;SDS011;5698;47.332;11.180;2023-05-14T13:31:03;0.50;;;0.50;;
11283;SDS011;5698;47.332;11.180;2023-05-14T13:33:33;0.70;;;0.57;;
11283;SDS011;5698;47.332;11.180;2023-05-14T13:36:01;0.60;;;0.60;;
11283;SDS011;5698;47.332;11.180;2023-05-14T13:38:28;0.60;;;0.60;;
11283;SDS011;5698;47.332;11.180;2023-05-14T13:40:55;0.57;;;0.57;;
11283;SDS011;5698;47.332;11.180;2023-05-14T13:43:26;0.60;;;0.60;;
11283;SDS011;5698;47.332;11.180;2023-05-14T13:45:54;0.80;;;0.80;;
11283;SDS011;5698;47.332;11.180;2023-05-14T13:48:21;1.43;;;1.10;;
11283;SDS011;5698;47.332;11.180;2023-05-14T13:50:50;0.97;;;0.90;;
11283;SDS011;5698;47.332;11.180;2023-05-14T13:53:17;1.00;;;0.90;;
11283;SDS011;5698;47.332;11.180;2023-05-14T13:55:44;1.00;;;0.90;;
11283;SDS011;5698;47.332;11.180;2023-05-14T13:58:11;1.23;;;1.13;;
11283;SDS011;5698;47.332;11.180;2023-05-14T14:00:39;1.20;;;1.10;;
11283;SDS011;5698;47.332;11.180;2023-05-14T14:03:06;1.20;;;1.10;;
11283;SDS011;5698;47.332;11.180;2023-05-14T14:05:33;0.90;;;0.90;;
11283;SDS011;5698;47.332;11.180;2023-05-14T14:08:02;0.97;;;0.97;;
11283;SDS011;5698;47.332;11.180;2023-05-14T14:10:29;1.33;;;0.80;;
11283;SDS011;5698;47.332;11.180;2023-05-14T14:12:56;0.90;;;0.90;;
11283;SDS011;5698;47.332;11.180;2023-05-14T14:15:23;1.67;;;1.10;;
11283;SDS011;5698;47.332;11.180;2023-05-14T14:17:50;1.13;;;0.90;;
11283;SDS011;5698;47.332;11.180;2023-05-14T14:20:17;1.10;;;1.00;;
11283;SDS011;5698;47.332;11.180;2023-05-14T14:22:44;1.23;;;1.10;;
11283;SDS011;5698;47.332;11.180;2023-05-14T14:25:12;1.30;;;1.20;;
11283;SDS011;5698;47.332;11.180;2023-05-14T14:27:39;1.40;;;1.20;;
11283;SDS011;5698;47.332;11.180;2023-05-14T14:30:07;1.20;;;1.10;;
11283;SDS011;5698;47.332;11.180;2023-05-14T14:32:39;1.33;;;1.23;;
11283;SDS011;5698;47.332;11.180;2023-05-14T14:35:08;1.40;;;1.30;;
11283;SDS011;5698;47.332;11.180;2023-05-14T14:37:36;1.70;;;1.60;;
11283;SDS011;5698;47.332;11.180;2023-05-14T14:40:03;1.40;;;1.30;;
11283;SDS011;5698;47.332;11.180;2023-05-14T14:42:33;1.63;;;1.37;;
11283;SDS011;5698;47.332;11.180;2023-05-14T14:45:01;1.40;;;1.30;;
11283;SDS011;5698;47.332;11.180;2023-05-14T14:47:28;1.60;;;1.50;;
11283;SDS011;5698;47.332;11.180;2023-05-14T14:49:55;1.40;;;1.20;;
11283;SDS011;5698;47.332;11.180;2023-05-14T14:52:23;1.57;;;1.47;;
11283;SDS011;5698;47.332;11.180;2023-05-14T14:54:50;1.40;;;1.30;;